Time;durP1;ratioP1;P1;durP2;ratioP2;P2;SDS_P1;SDS_P2;PMS_P1;PMS_P2;Temp;Humidity;BMP_temperature;BMP_pressure;BME280_temperature;BME280_humidity;BME280_pressure;Samples;Min_cycle;Max_cycle;Signal;HPM_P1;HPM_P2
2021/08/21 00:01:10;;;;;;;;;;;;;;;22.79;70.29;101022.91;4963738;28;102041;-93
2021/08/21 00:03:38;;;;;;;;;;;;;;;22.78;70.21;101027.63;4947604;28;101732;-94
2021/08/21 00:06:04;;;;;;;;;;;;;;;22.78;70.14;101016.53;4947932;28;101793;-94
2021/08/21 00:08:31;;;;;;;;;;;;;;;22.79;69.95;101020.13;4962689;28;102034;-95
2021/08/21 00:10:59;;;;;;;;;;;;;;;22.78;70.11;101019.31;4948802;28;101553;-94
2021/08/21 00:13:25;;;;;;;;;;;;;;;22.78;70.02;101016.53;4945992;28;102815;-88
2021/08/21 00:15:51;;;;;;;;;;;;;;;22.78;70.21;101021.28;4946028;28;102041;-88
2021/08/21 00:18:18;;;;;;;;;;;;;;;22.78;70.06;101029.63;4956232;28;102137;-87
2021/08/21 00:20:46;;;;;;;;;;;;;;;22.78;70.08;101030.41;4945563;28;102286;-87
2021/08/21 00:23:13;;;;;;;;;;;;;;;22.77;70.07;101028.81;4944637;28;102710;-87
2021/08/21 00:25:42;;;;;;;;;;;;;;;22.77;70.17;101028.00;4940321;28;102167;-94
2021/08/21 00:28:08;;;;;;;;;;;;;;;22.78;70.24;101027.63;4945213;28;102074;-92
2021/08/21 00:30:35;;;;;;;;;;;;;;;22.77;69.86;101023.25;4936465;28;102225;-94
2021/08/21 00:33:01;;;;;;;;;;;;;;;22.77;70.11;101020.47;4927628;28;102657;-86
2021/08/21 00:35:27;;;;;;;;;;;;;;;22.78;70.12;101026.84;4946074;28;102081;-93
2021/08/21 00:37:55;;;;;;;;;;;;;;;22.77;70.23;101020.47;4947111;28;101895;-94
2021/08/21 00:40:21;;;;;;;;;;;;;;;22.78;70.16;101033.19;4947146;28;102066;-86
2021/08/21 00:42:50;;;;;;;;;;;;;;;22.76;70.24;101029.97;4960857;28;102727;-85
2021/08/21 00:45:16;;;;;;;;;;;;;;;22.76;70.07;101024.41;4945763;28;101992;-86
2021/08/21 00:47:42;;;;;;;;;;;;;;;22.76;70.45;101024.41;4953168;28;102154;-86
2021/08/21 00:50:08;;;;;;;;;;;;;;;22.76;70.21;101023.63;4945348;28;102175;-86
2021/08/21 00:52:36;;;;;;;;;;;;;;;22.76;70.01;101018.06;4941643;28;102724;-86
2021/08/21 00:55:04;;;;;;;;;;;;;;;22.77;70.14;101020.47;4959234;28;102085;-86
2021/08/21 00:57:31;;;;;;;;;;;;;;;22.77;70.09;101020.47;4959799;28;102292;-86
2021/08/21 00:59:58;;;;;;;;;;;;;;;22.76;70.07;101018.88;4946981;28;104536;-86
2021/08/21 01:02:24;;;;;;;;;;;;;;;22.76;70.02;101026.38;4943937;28;102734;-86
2021/08/21 01:04:52;;;;;;;;;;;;;;;22.76;70.05;101016.09;4945321;28;102040;-85
2021/08/21 01:07:19;;;;;;;;;;;;;;;22.76;70.07;101013.31;4943603;28;102085;-85
2021/08/21 01:09:46;;;;;;;;;;;;;;;22.75;69.99;101017.22;4945744;28;102141;-86
2021/08/21 01:12:15;;;;;;;;;;;;;;;22.76;70.13;101018.88;4942023;28;102848;-85
2021/08/21 01:14:42;;;;;;;;;;;;;;;22.76;70.11;101016.09;4943586;28;102098;-86
2021/08/21 01:17:09;;;;;;;;;;;;;;;22.76;70.14;101024.41;4946846;28;102086;-86
2021/08/21 01:19:37;;;;;;;;;;;;;;;22.75;70.15;101025.56;4945475;28;102086;-86
2021/08/21 01:22:03;;;;;;;;;;;;;;;22.75;70.15;101022.78;4945936;28;102688;-85
2021/08/21 01:24:30;;;;;;;;;;;;;;;22.75;70.07;101022.78;4961601;28;102067;-86
2021/08/21 01:26:58;;;;;;;;;;;;;;;22.75;70.15;101028.34;4945571;28;102064;-87
2021/08/21 01:29:24;;;;;;;;;;;;;;;22.75;70.19;101025.56;4946616;28;102102;-92
2021/08/21 01:31:51;;;;;;;;;;;;;;;22.74;70.35;101026.72;4947904;28;102702;-94
2021/08/21 01:34:17;;;;;;;;;;;;;;;22.75;70.04;101028.34;4946731;28;101877;-94
2021/08/21 01:36:44;;;;;;;;;;;;;;;22.74;70.19;101029.50;4960925;28;101935;-94
2021/08/21 01:39:11;;;;;;;;;;;;;;;22.74;69.98;101026.72;4947902;28;102068;-94
2021/08/21 01:41:38;;;;;;;;;;;;;;;22.74;70.25;101032.28;4946039;28;102812;-93
2021/08/21 01:44:08;;;;;;;;;;;;;;;22.74;70.28;101032.28;4945680;28;101956;-94
2021/08/21 01:46:34;;;;;;;;;;;;;;;22.74;70.20;101031.47;4943524;28;101828;-93
2021/08/21 01:49:01;;;;;;;;;;;;;;;22.74;70.08;101043.38;4947716;28;102070;-94
2021/08/21 01:51:29;;;;;;;;;;;;;;;22.75;70.07;101033.06;4948543;28;101932;-94
2021/08/21 01:53:56;;;;;;;;;;;;;;;22.73;70.19;101033.44;4964973;28;101969;-94
2021/08/21 01:56:23;;;;;;;;;;;;;;;22.74;70.14;101034.25;4946502;28;102093;-94
2021/08/21 01:58:49;;;;;;;;;;;;;;;22.73;70.09;101036.22;4948714;28;101812;-94
2021/08/21 02:01:17;;;;;;;;;;;;;;;22.73;70.18;101041.75;4945298;28;102754;-94
2021/08/21 02:03:46;;;;;;;;;;;;;;;22.73;70.02;101041.75;4945128;28;101917;-94
2021/08/21 02:06:12;;;;;;;;;;;;;;;22.73;70.33;101041.75;4942809;28;101913;-93
2021/08/21 02:08:38;;;;;;;;;;;;;;;22.73;70.29;101036.22;4956225;28;101874;-94
2021/08/21 02:11:05;;;;;;;;;;;;;;;22.74;69.94;101043.38;4959469;28;101958;-94
2021/08/21 02:13:32;;;;;;;;;;;;;;;22.73;70.19;101044.53;4948547;28;102010;-93
2021/08/21 02:15:58;;;;;;;;;;;;;;;22.73;70.17;101041.75;4964376;28;101955;-93
2021/08/21 02:18:26;;;;;;;;;;;;;;;22.73;70.01;101047.31;4946518;28;102079;-93
2021/08/21 02:20:54;;;;;;;;;;;;;;;22.73;70.29;101049.28;4961147;28;102363;-93
2021/08/21 02:23:21;;;;;;;;;;;;;;;22.73;70.07;101043.72;4945994;28;101856;-93
2021/08/21 02:25:57;;;;;;;;;;;;;;;22.71;70.28;101046.81;4943707;28;101948;-94
2021/08/21 02:28:23;;;;;;;;;;;;;;;22.72;70.19;101050.41;4959185;28;102003;-93
2021/08/21 02:30:53;;;;;;;;;;;;;;;22.72;70.23;101051.25;4945493;28;102667;-93
2021/08/21 02:33:19;;;;;;;;;;;;;;;22.72;70.20;101051.25;4952314;28;102094;-93
2021/08/21 02:35:47;;;;;;;;;;;;;;;22.72;69.98;101062.34;4944928;28;101893;-93
2021/08/21 02:38:13;;;;;;;;;;;;;;;22.71;70.38;101066.25;4944087;28;102299;-92
2021/08/21 02:40:39;;;;;;;;;;;;;;;22.71;70.35;101054.34;4944225;28;102707;-92
2021/08/21 02:43:05;;;;;;;;;;;;;;;22.71;70.25;101057.94;4944474;28;101866;-93
2021/08/21 02:45:32;;;;;;;;;;;;;;;22.72;70.07;101053.19;4944394;28;101992;-93
2021/08/21 02:47:58;;;;;;;;;;;;;;;22.71;70.22;101059.91;4959364;28;103471;-92
2021/08/21 02:50:24;;;;;;;;;;;;;;;22.71;70.24;101055.16;4943820;28;102856;-93
2021/08/21 02:52:55;;;;;;;;;;;;;;;22.71;70.05;101057.13;4944837;28;101968;-93
2021/08/21 02:55:21;;;;;;;;;;;;;;;22.71;70.01;101060.69;4946738;28;101998;-92
2021/08/21 02:57:47;;;;;;;;;;;;;;;22.70;70.20;101053.53;4946153;28;102314;-86
2021/08/21 03:00:14;;;;;;;;;;;;;;;22.70;70.27;101064.63;4940611;28;102820;-91
2021/08/21 03:02:42;;;;;;;;;;;;;;;22.71;70.24;101065.44;4940349;28;102297;-85
2021/08/21 03:05:09;;;;;;;;;;;;;;;22.71;70.14;101068.22;4940367;28;102175;-85
2021/08/21 03:07:35;;;;;;;;;;;;;;;22.71;70.25;101071.00;4937063;28;102315;-86
2021/08/21 03:10:04;;;;;;;;;;;;;;;22.70;70.37;101078.50;4941544;28;102727;-88
2021/08/21 03:12:31;;;;;;;;;;;;;;;22.70;70.36;101064.63;4939441;28;102361;-87
2021/08/21 03:15:00;;;;;;;;;;;;;;;22.70;70.15;101070.19;4942818;28;102233;-93
2021/08/21 03:17:26;;;;;;;;;;;;;;;22.70;70.02;101072.16;4932471;28;102339;-87
2021/08/21 03:19:53;;;;;;;;;;;;;;;22.71;70.08;101071.81;4940684;28;102056;-87
2021/08/21 03:22:19;;;;;;;;;;;;;;;22.71;70.22;101077.34;4941755;28;102020;-86
2021/08/21 03:24:45;;;;;;;;;;;;;;;22.71;70.06;101077.34;4940613;28;102048;-85
2021/08/21 03:27:13;;;;;;;;;;;;;;;22.72;70.34;101078.16;4942586;28;102247;-85
2021/08/21 03:29:39;;;;;;;;;;;;;;;22.71;70.22;101082.91;4940000;28;102394;-86
2021/08/21 03:32:07;;;;;;;;;;;;;;;22.71;70.40;101077.34;4936510;28;101957;-84
2021/08/21 03:34:34;;;;;;;;;;;;;;;22.71;70.12;101077.34;4946483;28;102270;-84
2021/08/21 03:37:00;;;;;;;;;;;;;;;22.71;70.29;101073.75;4945752;28;102236;-85
2021/08/21 03:39:27;;;;;;;;;;;;;;;22.71;70.23;101076.53;4942652;28;102444;-85
2021/08/21 03:41:54;;;;;;;;;;;;;;;22.71;70.16;101077.34;4945183;28;102161;-86
2021/08/21 03:44:22;;;;;;;;;;;;;;;22.70;70.17;101078.50;4944670;28;102106;-90
2021/08/21 03:46:49;;;;;;;;;;;;;;;22.71;70.35;101082.09;4945439;28;102008;-90
2021/08/21 03:49:16;;;;;;;;;;;;;;;22.71;70.41;101077.34;4943214;28;102778;-90
2021/08/21 03:51:42;;;;;;;;;;;;;;;22.71;70.24;101077.34;4945805;28;102075;-90
2021/08/21 03:54:08;;;;;;;;;;;;;;;22.70;70.43;101075.75;4948420;28;102055;-90
2021/08/21 03:56:34;;;;;;;;;;;;;;;22.71;70.36;101082.91;4958925;28;102107;-90
2021/08/21 03:59:01;;;;;;;;;;;;;;;22.71;70.53;101087.63;4948282;28;102754;-90
2021/08/21 04:01:29;;;;;;;;;;;;;;;22.71;70.24;101084.88;4955984;28;101989;-90
2021/08/21 04:03:56;;;;;;;;;;;;;;;22.71;70.43;101088.44;4946275;28;102025;-90
2021/08/21 04:06:22;;;;;;;;;;;;;;;22.71;70.18;101082.91;4941438;28;102171;-90
2021/08/21 04:08:49;;;;;;;;;;;;;;;22.71;70.22;101079.31;4946435;28;102403;-90
2021/08/21 04:11:18;;;;;;;;;;;;;;;22.71;70.26;101077.34;4942372;28;102210;-90
2021/08/21 04:13:44;;;;;;;;;;;;;;;22.71;70.24;101071.81;4934684;28;102132;-86
2021/08/21 04:16:32;;;;;;;;;;;;;;;22.71;70.38;101085.66;4954404;28;102436;-86
2021/08/21 04:18:59;;;;;;;;;;;;;;;22.71;70.25;101077.34;4940211;28;102695;-86
2021/08/21 04:21:27;;;;;;;;;;;;;;;22.71;70.20;101077.34;4944617;28;102131;-86
2021/08/21 04:23:53;;;;;;;;;;;;;;;22.71;70.18;101082.91;4942352;28;102203;-86
2021/08/21 04:26:20;;;;;;;;;;;;;;;22.72;70.24;101079.00;4944888;28;102126;-86
2021/08/21 04:28:47;;;;;;;;;;;;;;;22.71;70.48;101077.34;4957074;28;102722;-87
2021/08/21 04:31:13;;;;;;;;;;;;;;;22.72;70.20;101079.00;4959540;28;102134;-86
2021/08/21 04:33:41;;;;;;;;;;;;;;;22.72;70.37;101076.22;4942565;28;102486;-87
2021/08/21 04:36:07;;;;;;;;;;;;;;;22.72;70.50;101073.44;4942208;28;102169;-87
2021/08/21 04:38:34;;;;;;;;;;;;;;;22.71;70.28;101077.34;4939729;28;103131;-87
2021/08/21 04:41:00;;;;;;;;;;;;;;;22.72;70.43;101073.44;4940363;28;102027;-87
2021/08/21 04:43:27;;;;;;;;;;;;;;;22.72;70.35;101079.00;4941583;28;102268;-87
2021/08/21 04:45:53;;;;;;;;;;;;;;;22.72;70.39;101079.00;4949255;28;102540;-87
2021/08/21 04:48:20;;;;;;;;;;;;;;;22.72;70.40;101078.16;4937701;28;102767;-87
2021/08/21 04:50:47;;;;;;;;;;;;;;;22.72;70.31;101089.25;4944488;28;102066;-87
2021/08/21 04:53:13;;;;;;;;;;;;;;;22.72;70.48;101081.75;4957713;28;102438;-87
2021/08/21 04:55:40;;;;;;;;;;;;;;;22.73;70.33;101082.56;4942355;28;102110;-87
2021/08/21 04:58:06;;;;;;;;;;;;;;;22.73;70.43;101079.78;4943528;28;102753;-87
2021/08/21 05:00:32;;;;;;;;;;;;;;;22.72;70.28;101079.00;4942727;28;102012;-87
2021/08/21 05:02:58;;;;;;;;;;;;;;;22.73;70.58;101082.56;4946594;28;102153;-91
2021/08/21 05:05:25;;;;;;;;;;;;;;;22.72;70.23;101083.69;4944878;28;102075;-90
2021/08/21 05:07:53;;;;;;;;;;;;;;;22.72;70.34;101089.25;4946384;28;102767;-88
2021/08/21 05:10:19;;;;;;;;;;;;;;;22.72;70.41;101090.09;4946105;28;102111;-87
2021/08/21 05:12:46;;;;;;;;;;;;;;;22.72;70.30;101090.09;4944220;28;101927;-86
2021/08/21 05:15:13;;;;;;;;;;;;;;;22.72;70.35;101095.63;4946221;28;102186;-87
2021/08/21 05:17:39;;;;;;;;;;;;;;;22.73;70.50;101090.91;4945100;28;102703;-87
2021/08/21 05:20:15;;;;;;;;;;;;;;;22.72;70.61;101095.63;4945543;28;101941;-89
2021/08/21 05:25:13;;;;;;;;;;;;;;;22.73;70.41;101102.78;4946883;28;102189;-87
2021/08/21 05:27:40;;;;;;;;;;;;;;;22.73;70.60;101104.75;4943049;28;102777;-88
2021/08/21 05:30:07;;;;;;;;;;;;;;;22.74;70.50;101104.41;4942770;28;102122;-88
2021/08/21 05:32:34;;;;;;;;;;;;;;;22.74;70.42;101104.41;4942538;28;102156;-87
2021/08/21 05:35:00;;;;;;;;;;;;;;;22.74;70.48;101109.16;4957999;28;102126;-87
2021/08/21 05:37:33;;;;;;;;;;;;;;;22.74;70.39;101112.72;4930513;28;102484;-87
2021/08/21 05:40:00;;;;;;;;;;;;;;;22.74;70.50;101115.50;4942461;28;102194;-88
2021/08/21 05:42:27;;;;;;;;;;;;;;;22.75;70.42;101117.13;4942747;28;102160;-88
2021/08/21 05:44:53;;;;;;;;;;;;;;;22.75;70.64;101117.13;4957029;28;102170;-87
2021/08/21 05:47:20;;;;;;;;;;;;;;;22.76;70.59;101112.41;4942561;28;102714;-87
2021/08/21 05:49:46;;;;;;;;;;;;;;;22.77;70.29;101111.25;4943252;28;102095;-87
2021/08/21 05:52:13;;;;;;;;;;;;;;;22.78;70.62;101113.66;4941424;28;102196;-88
2021/08/21 05:54:39;;;;;;;;;;;;;;;22.78;70.62;101116.44;4934393;28;102232;-87
2021/08/21 05:57:06;;;;;;;;;;;;;;;22.79;70.54;101114.47;4941897;28;102828;-88
2021/08/21 05:59:34;;;;;;;;;;;;;;;22.79;70.35;101120.00;4946134;28;102032;-90
2021/08/21 06:02:01;;;;;;;;;;;;;;;22.81;70.39;101114.94;4945291;28;101982;-87
2021/08/21 06:04:27;;;;;;;;;;;;;;;22.82;70.35;101124.06;4945386;28;102156;-87
2021/08/21 06:06:54;;;;;;;;;;;;;;;22.83;70.48;101122.91;4940216;28;102667;-87
2021/08/21 06:09:23;;;;;;;;;;;;;;;22.84;70.22;101119.81;4942661;28;102019;-87
2021/08/21 06:11:50;;;;;;;;;;;;;;;22.84;70.38;101119.81;4942343;28;102113;-87
2021/08/21 06:14:16;;;;;;;;;;;;;;;22.86;70.41;101122.22;4942950;28;102274;-87
2021/08/21 06:16:44;;;;;;;;;;;;;;;22.87;70.30;101123.88;4941715;28;102505;-87
2021/08/21 06:19:11;;;;;;;;;;;;;;;22.88;70.34;101125.47;4946539;28;102225;-88
2021/08/21 06:21:37;;;;;;;;;;;;;;;22.89;70.35;101130.66;4943867;28;102260;-88
2021/08/21 06:24:04;;;;;;;;;;;;;;;22.89;70.20;101127.09;4943793;28;102022;-87
2021/08/21 06:26:30;;;;;;;;;;;;;;;22.91;70.30;101133.94;4939941;28;102763;-87
2021/08/21 06:28:57;;;;;;;;;;;;;;;22.91;70.17;101138.66;4941377;28;102128;-88
2021/08/21 06:31:23;;;;;;;;;;;;;;;22.91;70.41;101136.69;4943009;28;102111;-88
2021/08/21 06:33:54;;;;;;;;;;;;;;;22.92;70.56;101135.56;4942289;28;102014;-88
2021/08/21 06:36:20;;;;;;;;;;;;;;;22.93;70.15;101133.59;4941382;28;103004;-87
2021/08/21 06:38:46;;;;;;;;;;;;;;;22.94;70.29;101138.81;4938032;28;102153;-87
2021/08/21 06:41:12;;;;;;;;;;;;;;;22.94;70.19;101135.25;4936339;28;102126;-88
2021/08/21 06:43:39;;;;;;;;;;;;;;;22.96;70.30;101138.47;4931586;28;102045;-87
2021/08/21 06:46:05;;;;;;;;;;;;;;;22.95;70.22;101143.22;4942095;28;102695;-88
2021/08/21 06:48:32;;;;;;;;;;;;;;;22.97;70.26;101140.06;4941096;28;102160;-88
2021/08/21 06:51:00;;;;;;;;;;;;;;;22.98;70.08;101152.81;4954202;28;102220;-88
2021/08/21 06:53:29;;;;;;;;;;;;;;;22.98;70.35;101150.03;4942502;28;102032;-88
2021/08/21 06:55:56;;;;;;;;;;;;;;;22.99;70.08;101148.88;4941588;28;102782;-88
2021/08/21 06:58:22;;;;;;;;;;;;;;;23.01;70.18;101152.13;4941808;28;102010;-87
2021/08/21 07:00:49;;;;;;;;;;;;;;;23.01;70.27;101149.34;4942118;28;101937;-88
2021/08/21 07:03:15;;;;;;;;;;;;;;;23.02;70.13;101153.75;4943473;28;102196;-89
2021/08/21 07:05:42;;;;;;;;;;;;;;;23.02;70.11;101142.63;4936509;28;102457;-87
2021/08/21 07:08:10;;;;;;;;;;;;;;;23.02;70.19;101154.56;4944903;28;102123;-88
2021/08/21 07:10:36;;;;;;;;;;;;;;;23.03;70.31;101156.16;4937062;28;102132;-88
2021/08/21 07:13:02;;;;;;;;;;;;;;;23.03;70.18;101139.50;4958438;28;101982;-87
2021/08/21 07:15:29;;;;;;;;;;;;;;;23.05;70.14;101155.84;4941474;28;102480;-87
2021/08/21 07:17:57;;;;;;;;;;;;;;;23.06;70.40;101151.91;4940585;28;102012;-88
2021/08/21 07:20:24;;;;;;;;;;;;;;;23.06;70.11;101154.66;4940928;28;102093;-88
2021/08/21 07:22:50;;;;;;;;;;;;;;;23.07;70.13;101152.69;4943657;28;102068;-89
2021/08/21 07:25:18;;;;;;;;;;;;;;;23.08;70.26;101146.81;4925959;28;102792;-89
2021/08/21 07:27:44;;;;;;;;;;;;;;;23.09;70.22;101148.44;4940572;28;101991;-87
2021/08/21 07:30:10;;;;;;;;;;;;;;;23.10;70.11;101149.25;4927437;28;102248;-87
2021/08/21 07:32:37;;;;;;;;;;;;;;;23.11;69.96;101154.44;4954173;28;102074;-88
2021/08/21 07:35:04;;;;;;;;;;;;;;;23.11;69.89;101145.28;4938200;28;102798;-88
2021/08/21 07:37:30;;;;;;;;;;;;;;;23.11;70.09;101157.22;4941334;28;101995;-88
2021/08/21 07:39:56;;;;;;;;;;;;;;;23.12;70.00;101152.50;4939305;28;102782;-88
2021/08/21 07:42:24;;;;;;;;;;;;;;;23.13;69.95;101154.91;4941784;28;102160;-88
2021/08/21 07:44:51;;;;;;;;;;;;;;;23.13;69.89;101163.25;4939511;28;102829;-88
2021/08/21 07:47:17;;;;;;;;;;;;;;;23.13;70.25;101160.47;4935257;28;102139;-88
2021/08/21 07:49:45;;;;;;;;;;;;;;;23.13;69.96;101154.91;4940211;28;101969;-88
2021/08/21 07:52:11;;;;;;;;;;;;;;;23.15;69.88;101158.16;4957154;28;102037;-88
2021/08/21 07:54:38;;;;;;;;;;;;;;;23.15;70.13;101147.06;4937468;28;102703;-88
2021/08/21 07:57:04;;;;;;;;;;;;;;;23.16;70.23;101165.31;4943377;28;102197;-88
2021/08/21 07:59:32;;;;;;;;;;;;;;;23.16;70.16;101156.19;4939741;28;102050;-88
2021/08/21 08:01:59;;;;;;;;;;;;;;;23.16;69.99;101154.22;4941600;28;102265;-89
2021/08/21 08:04:26;;;;;;;;;;;;;;;23.17;70.03;101160.59;4956571;28;102177;-88
2021/08/21 08:06:52;;;;;;;;;;;;;;;23.17;70.11;101158.59;4937277;28;102107;-88
2021/08/21 08:09:18;;;;;;;;;;;;;;;23.17;69.92;101147.50;4941203;28;102141;-88
2021/08/21 08:11:45;;;;;;;;;;;;;;;23.18;69.93;101160.22;4942190;28;102222;-90
2021/08/21 08:14:11;;;;;;;;;;;;;;;23.19;69.76;101158.28;4942785;28;101917;-86
2021/08/21 08:16:39;;;;;;;;;;;;;;;23.18;69.92;101157.44;4944428;28;101888;-91
2021/08/21 08:19:05;;;;;;;;;;;;;;;23.18;69.66;101157.44;4944851;28;102262;-92
2021/08/21 08:21:33;;;;;;;;;;;;;;;23.19;69.90;101159.09;4962021;28;102113;-92
2021/08/21 08:23:59;;;;;;;;;;;;;;;23.19;69.75;101158.28;4964918;28;102706;-92
2021/08/21 08:26:25;;;;;;;;;;;;;;;23.19;69.80;101156.31;4948645;28;101958;-91
2021/08/21 08:28:52;;;;;;;;;;;;;;;23.19;69.87;101147.97;4947304;28;101958;-89
2021/08/21 08:31:18;;;;;;;;;;;;;;;23.20;69.69;101165.44;4946005;28;102085;-92
2021/08/21 08:33:46;;;;;;;;;;;;;;;23.19;69.98;101156.31;4942737;28;102430;-92
2021/08/21 08:36:12;;;;;;;;;;;;;;;23.20;69.75;101163.47;4965105;28;102097;-92
2021/08/21 08:38:40;;;;;;;;;;;;;;;23.20;69.73;101163.47;4945702;28;102068;-92
2021/08/21 08:41:08;;;;;;;;;;;;;;;23.21;69.71;101161.50;4946604;28;102138;-92
2021/08/21 08:43:35;;;;;;;;;;;;;;;23.20;69.66;101160.69;4961803;28;102842;-91
2021/08/21 08:46:02;;;;;;;;;;;;;;;23.20;69.60;101160.69;4946048;28;102007;-92
2021/08/21 08:48:30;;;;;;;;;;;;;;;23.21;69.71;101161.50;4943798;28;101888;-91
2021/08/21 08:50:59;;;;;;;;;;;;;;;23.21;69.39;101158.72;4954494;28;102121;-90
2021/08/21 08:53:25;;;;;;;;;;;;;;;23.21;69.59;101155.94;4945573;28;102755;-91
2021/08/21 08:55:52;;;;;;;;;;;;;;;23.21;69.67;101162.31;4945762;28;101790;-91
2021/08/21 08:58:18;;;;;;;;;;;;;;;23.21;69.85;101162.31;4945999;28;101764;-92
2021/08/21 09:00:45;;;;;;;;;;;;;;;23.21;69.59;101167.88;4946798;28;102180;-93
2021/08/21 09:03:18;;;;;;;;;;;;;;;23.21;69.73;101161.50;4945345;28;102704;-91
2021/08/21 09:05:44;;;;;;;;;;;;;;;23.21;69.72;101156.75;4959334;28;102037;-92
2021/08/21 09:08:20;;;;;;;;;;;;;;;23.21;69.65;101158.72;4946407;28;101897;-92
2021/08/21 09:10:47;;;;;;;;;;;;;;;23.21;69.43;101162.31;4945641;28;102151;-91
2021/08/21 09:13:15;;;;;;;;;;;;;;;23.23;69.52;101162.78;4945672;28;102784;-91
2021/08/21 09:15:42;;;;;;;;;;;;;;;23.21;69.59;101162.31;4947001;28;101882;-92
2021/08/21 09:18:09;;;;;;;;;;;;;;;23.23;69.56;101165.56;4945397;28;101897;-92
2021/08/21 09:20:52;;;;;;;;;;;;;;;23.22;69.58;101157.56;4962683;28;102098;-92
2021/08/21 09:23:21;;;;;;;;;;;;;;;23.23;69.56;101156.44;4942015;28;102857;-92
2021/08/21 09:25:48;;;;;;;;;;;;;;;23.22;69.52;101152.00;4946939;28;102074;-91
2021/08/21 09:28:15;;;;;;;;;;;;;;;23.23;69.60;101157.22;4936291;28;102098;-92
2021/08/21 09:30:42;;;;;;;;;;;;;;;23.21;69.48;101162.31;4938242;28;102041;-92
2021/08/21 09:33:11;;;;;;;;;;;;;;;23.23;69.62;101164.75;4945870;28;102309;-87
2021/08/21 09:35:37;;;;;;;;;;;;;;;23.24;69.58;101164.41;4946123;28;102037;-87
2021/08/21 09:38:04;;;;;;;;;;;;;;;23.23;69.29;101159.22;4944388;28;102083;-88
2021/08/21 09:40:33;;;;;;;;;;;;;;;23.23;69.52;101160.00;4946638;28;102146;-88
2021/08/21 09:42:59;;;;;;;;;;;;;;;23.23;69.55;101165.56;4943810;28;102743;-86
2021/08/21 09:45:26;;;;;;;;;;;;;;;23.23;69.45;101159.22;4946017;28;101983;-90
2021/08/21 09:47:57;;;;;;;;;;;;;;;23.24;69.51;101161.63;4944320;28;101970;-92
2021/08/21 09:50:23;;;;;;;;;;;;;;;23.22;69.21;101161.19;4944602;28;101959;-91
2021/08/21 09:52:50;;;;;;;;;;;;;;;23.23;69.34;101165.56;4949270;28;102697;-92
2021/08/21 09:55:20;;;;;;;;;;;;;;;23.23;69.46;101168.34;4951942;28;101997;-92
2021/08/21 09:57:59;;;;;;;;;;;;;;;23.23;69.17;101159.22;4945883;28;101972;-92
2021/08/21 10:00:25;;;;;;;;;;;;;;;23.22;69.52;101158.41;4957359;28;102001;-91
2021/08/21 10:02:53;;;;;;;;;;;;;;;23.23;69.14;101159.22;4946547;28;102838;-91
2021/08/21 10:05:20;;;;;;;;;;;;;;;23.23;69.41;101164.75;4943936;28;101983;-92
2021/08/21 10:07:50;;;;;;;;;;;;;;;23.23;69.39;101160.00;4944239;28;101847;-92
2021/08/21 10:10:18;;;;;;;;;;;;;;;23.23;69.35;101153.66;4946936;28;102067;-92
2021/08/21 10:12:46;;;;;;;;;;;;;;;23.22;69.37;101154.78;4945242;28;102649;-91
2021/08/21 10:15:14;;;;;;;;;;;;;;;23.23;69.40;101160.00;4945315;28;101974;-91
2021/08/21 10:17:42;;;;;;;;;;;;;;;23.23;69.27;101165.56;4945608;28;101804;-91
2021/08/21 10:20:11;;;;;;;;;;;;;;;23.21;69.38;101156.75;4962697;28;102096;-90
2021/08/21 10:22:38;;;;;;;;;;;;;;;23.22;69.13;101160.34;4964281;28;102704;-91
2021/08/21 10:25:05;;;;;;;;;;;;;;;23.20;69.26;101166.25;4965005;28;101872;-92
2021/08/21 10:27:34;;;;;;;;;;;;;;;23.20;68.97;101157.91;4952481;28;101925;-91
2021/08/21 10:30:01;;;;;;;;;;;;;;;23.20;69.15;101155.16;4944959;28;102107;-90
2021/08/21 10:32:30;;;;;;;;;;;;;;;23.21;68.88;101167.88;4944265;28;101988;-90
2021/08/21 10:34:56;;;;;;;;;;;;;;;23.20;69.30;101160.69;4944179;28;101800;-90
2021/08/21 10:37:32;;;;;;;;;;;;;;;23.20;69.06;101169.03;4959532;28;101884;-91
2021/08/21 10:39:59;;;;;;;;;;;;;;;23.20;69.20;101166.25;4945487;28;102080;-86
2021/08/21 10:42:26;;;;;;;;;;;;;;;23.18;69.33;101160.22;4946919;28;102446;-87
2021/08/21 10:44:53;;;;;;;;;;;;;;;23.19;69.11;101164.63;4944007;28;101934;-87
2021/08/21 10:47:38;;;;;;;;;;;;;;;23.19;69.27;101164.63;4942465;28;102026;-87
2021/08/21 10:50:23;;;;;;;;;;;;;;;23.18;69.15;101163.00;4945111;28;102168;-87
2021/08/21 10:52:53;;;;;;;;;;;;;;;23.19;69.17;101150.75;4941500;28;102727;-88
2021/08/21 10:55:21;;;;;;;;;;;;;;;23.18;68.96;101160.22;4943471;28;102077;-87
2021/08/21 10:57:55;;;;;;;;;;;;;;;23.19;69.35;101161.06;4954827;28;101915;-87
2021/08/21 11:00:35;;;;;;;;;;;;;;;23.18;69.02;101151.91;4943374;28;102055;-87
2021/08/21 11:03:04;;;;;;;;;;;;;;;23.18;69.19;101151.91;4930124;28;102142;-87
2021/08/21 11:05:50;;;;;;;;;;;;;;;23.18;69.22;101163.00;4944550;28;101804;-87
2021/08/21 11:08:16;;;;;;;;;;;;;;;23.17;69.16;101155.84;4935660;28;102186;-87
2021/08/21 11:10:42;;;;;;;;;;;;;;;23.17;69.16;101164.16;4945137;28;102147;-87
2021/08/21 11:13:11;;;;;;;;;;;;;;;23.16;69.11;101154.22;4941834;28;102724;-88
2021/08/21 11:15:37;;;;;;;;;;;;;;;23.16;69.26;101154.22;4943229;28;101931;-87
2021/08/21 11:18:19;;;;;;;;;;;;;;;23.16;69.25;101148.66;4943563;28;102058;-88
2021/08/21 11:20:45;;;;;;;;;;;;;;;23.16;69.25;101147.88;4945006;28;102033;-87
2021/08/21 11:23:18;;;;;;;;;;;;;;;23.16;69.41;101154.22;4959795;28;102143;-87
2021/08/21 11:25:45;;;;;;;;;;;;;;;23.16;69.18;101143.13;4944655;28;102004;-87
2021/08/21 11:28:30;;;;;;;;;;;;;;;23.16;69.29;101145.91;4942230;28;102072;-87
2021/08/21 11:31:09;;;;;;;;;;;;;;;23.15;69.22;101141.50;4941089;28;102144;-87
2021/08/21 11:33:38;;;;;;;;;;;;;;;23.16;69.35;101148.66;4943744;28;102144;-87
2021/08/21 11:36:05;;;;;;;;;;;;;;;23.15;69.05;101144.28;4956968;28;102409;-88
2021/08/21 11:38:33;;;;;;;;;;;;;;;23.15;69.26;101144.28;4939744;28;102032;-89
2021/08/21 11:41:00;;;;;;;;;;;;;;;23.15;69.14;101151.78;4942454;28;102111;-88
2021/08/21 11:43:28;;;;;;;;;;;;;;;23.14;69.14;101145.41;4940897;28;103226;-88
2021/08/21 11:45:54;;;;;;;;;;;;;;;23.15;69.40;101141.50;4942362;28;102111;-88
2021/08/21 11:48:26;;;;;;;;;;;;;;;23.14;69.56;101145.41;4940371;28;102187;-88
2021/08/21 11:50:54;;;;;;;;;;;;;;;23.13;69.18;101138.25;4940122;28;102111;-88
2021/08/21 11:53:21;;;;;;;;;;;;;;;23.13;69.18;101138.25;4943409;28;102827;-88
2021/08/21 11:55:49;;;;;;;;;;;;;;;23.13;69.49;101143.00;4945439;28;102050;-89
2021/08/21 11:58:16;;;;;;;;;;;;;;;23.12;69.45;101131.09;4943907;28;102189;-88
2021/08/21 12:00:52;;;;;;;;;;;;;;;23.12;69.39;101139.41;4944448;28;102228;-89
2021/08/21 12:03:32;;;;;;;;;;;;;;;23.12;69.52;101142.19;4959902;28;102723;-89
2021/08/21 12:06:00;;;;;;;;;;;;;;;23.12;69.32;101135.84;4960136;28;102146;-88
2021/08/21 12:08:27;;;;;;;;;;;;;;;23.11;69.38;101132.22;4944925;28;102117;-88
2021/08/21 12:10:54;;;;;;;;;;;;;;;23.11;69.20;101140.56;4946155;28;102162;-90
2021/08/21 12:13:23;;;;;;;;;;;;;;;23.11;69.30;101140.56;4945708;28;102766;-88
2021/08/21 12:15:50;;;;;;;;;;;;;;;23.11;69.56;101140.56;4946286;28;102177;-89
2021/08/21 12:18:17;;;;;;;;;;;;;;;23.11;69.38;101142.53;4943493;28;102179;-89
2021/08/21 12:20:43;;;;;;;;;;;;;;;23.10;69.59;101150.03;4939770;28;102068;-89
2021/08/21 12:23:12;;;;;;;;;;;;;;;23.10;69.32;101147.28;4939417;28;102741;-88
2021/08/21 12:25:44;;;;;;;;;;;;;;;23.09;69.55;101142.88;4936530;28;102221;-88
2021/08/21 12:28:11;;;;;;;;;;;;;;;23.09;69.37;101140.09;4947193;28;102020;-88
2021/08/21 12:30:37;;;;;;;;;;;;;;;23.09;69.55;101131.78;4946497;28;102171;-88
2021/08/21 12:33:08;;;;;;;;;;;;;;;23.09;69.61;101131.78;4944835;28;102311;-87